createdAt,value
2022-12-06T00:02:31.020Z,13.10
2022-12-06T00:05:19.411Z,14.07
2022-12-06T00:08:07.840Z,13.40
2022-12-06T00:10:57.766Z,13.07
2022-12-06T00:13:48.621Z,12.73
2022-12-06T00:16:37.894Z,12.73
2022-12-06T00:19:28.076Z,12.93
2022-12-06T00:22:16.810Z,13.07
2022-12-06T00:25:05.704Z,13.57
2022-12-06T00:27:54.277Z,13.57
2022-12-06T00:30:41.894Z,14.33
2022-12-06T00:33:31.067Z,14.23
2022-12-06T00:36:22.751Z,14.03
2022-12-06T00:39:13.685Z,14.17
2022-12-06T00:42:02.105Z,14.43
2022-12-06T00:44:50.400Z,13.80
2022-12-06T00:47:39.095Z,13.47
2022-12-06T00:50:27.950Z,13.57
2022-12-06T00:53:16.993Z,12.80
2022-12-06T00:56:05.317Z,12.13
2022-12-06T00:58:53.768Z,12.77
2022-12-06T01:01:43.938Z,12.63
2022-12-06T01:04:32.083Z,12.27
2022-12-06T01:07:20.624Z,12.47
2022-12-06T01:10:09.496Z,12.83
2022-12-06T01:12:57.935Z,12.40
2022-12-06T01:15:46.187Z,11.60
2022-12-06T01:18:35.316Z,12.27
2022-12-06T01:21:24.678Z,11.17
2022-12-06T01:24:12.345Z,11.50
2022-12-06T01:27:00.735Z,11.17
2022-12-06T01:29:49.202Z,10.93
2022-12-06T01:32:37.766Z,10.83
2022-12-06T01:35:26.536Z,11.30
2022-12-06T01:38:14.931Z,11.27
2022-12-06T01:41:03.952Z,11.27
2022-12-06T01:43:51.715Z,10.57
2022-12-06T01:46:45.454Z,10.60
2022-12-06T01:49:35.619Z,10.30
2022-12-06T01:52:26.947Z,10.97
2022-12-06T01:55:15.843Z,9.23
2022-12-06T01:58:11.347Z,10.80
2022-12-06T02:00:58.803Z,9.57
2022-12-06T02:03:48.596Z,9.67
2022-12-06T02:06:35.778Z,9.50
2022-12-06T02:09:24.694Z,8.60
2022-12-06T02:12:14.813Z,8.97
2022-12-06T02:15:02.475Z,9.07
2022-12-06T02:18:20.868Z,9.10
2022-12-06T02:21:23.827Z,8.83
2022-12-06T02:24:29.578Z,8.83
2022-12-06T02:27:51.920Z,9.10
2022-12-06T02:30:58.468Z,8.47
2022-12-06T02:34:41.019Z,8.70
2022-12-06T02:37:46.656Z,8.47
2022-12-06T02:40:42.746Z,9.07
2022-12-06T02:43:41.140Z,9.40
2022-12-06T02:46:35.355Z,8.97
2022-12-06T02:49:25.377Z,9.47
2022-12-06T02:52:15.135Z,10.60
2022-12-06T02:55:07.455Z,11.70
2022-12-06T02:57:58.084Z,12.03
2022-12-06T03:00:50.660Z,11.90
2022-12-06T03:03:50.876Z,12.67
2022-12-06T03:06:46.488Z,12.57
2022-12-06T03:09:54.140Z,12.13
2022-12-06T03:13:29.907Z,12.53
2022-12-06T03:16:26.942Z,13.67
2022-12-06T03:19:24.404Z,13.57
2022-12-06T03:22:21.521Z,13.10
2022-12-06T03:25:11.114Z,13.07
2022-12-06T03:28:01.663Z,12.60
2022-12-06T03:30:53.274Z,12.57
2022-12-06T03:33:50.684Z,12.30
2022-12-06T03:36:40.624Z,12.90
2022-12-06T03:39:37.720Z,11.80
2022-12-06T03:42:27.288Z,12.60
2022-12-06T03:45:16.259Z,12.63
2022-12-06T03:48:15.372Z,13.17
2022-12-06T03:51:16.512Z,13.73
2022-12-06T03:54:09.176Z,13.20
2022-12-06T03:56:58.113Z,13.90
2022-12-06T03:59:46.884Z,14.73
2022-12-06T04:02:38.651Z,13.83
2022-12-06T04:05:28.238Z,13.67
2022-12-06T04:08:16.818Z,14.57
2022-12-06T04:11:07.339Z,13.60
2022-12-06T04:13:56.220Z,14.40
2022-12-06T04:17:03.369Z,13.27
2022-12-06T04:19:52.308Z,13.47
2022-12-06T04:22:59.358Z,12.90
2022-12-06T04:25:47.704Z,12.57
2022-12-06T04:29:02.690Z,11.73
2022-12-06T04:32:09.592Z,11.90
2022-12-06T04:35:16.229Z,11.90
2022-12-06T04:38:23.411Z,11.90
2022-12-06T04:41:33.443Z,12.30
2022-12-06T04:44:21.979Z,12.20
2022-12-06T04:47:10.610Z,11.47
2022-12-06T04:49:59.239Z,12.33
2022-12-06T04:52:48.187Z,12.83
2022-12-06T04:55:38.453Z,12.00
2022-12-06T04:58:27.050Z,13.47
2022-12-06T05:01:19.747Z,12.30
2022-12-06T05:04:09.996Z,12.70
2022-12-06T05:06:58.465Z,12.50
2022-12-06T05:09:46.588Z,13.73
2022-12-06T05:12:35.055Z,11.47
2022-12-06T05:15:26.651Z,13.80
2022-12-06T05:18:19.703Z,13.00
2022-12-06T05:21:17.438Z,12.17
2022-12-06T05:24:06.327Z,12.93
2022-12-06T05:26:57.972Z,14.30
2022-12-06T05:29:46.651Z,14.40
2022-12-06T05:32:37.492Z,12.47
2022-12-06T05:35:25.870Z,13.43
2022-12-06T05:38:14.148Z,13.90
2022-12-06T05:41:03.377Z,15.00
2022-12-06T05:43:52.273Z,15.13
2022-12-06T05:46:40.750Z,15.10
2022-12-06T05:49:30.245Z,13.00
2022-12-06T05:52:19.211Z,14.30
2022-12-06T05:55:09.741Z,16.73
2022-12-06T05:57:58.040Z,16.40
2022-12-06T06:00:51.278Z,15.53
2022-12-06T06:03:44.053Z,15.60
2022-12-06T06:06:35.936Z,15.43
2022-12-06T06:09:28.113Z,15.43
2022-12-06T06:12:17.732Z,16.17
2022-12-06T06:15:08.403Z,15.83
2022-12-06T06:17:57.218Z,16.47
2022-12-06T06:20:54.100Z,19.40
2022-12-06T06:23:42.229Z,17.60
2022-12-06T06:26:30.916Z,16.83
2022-12-06T06:29:20.252Z,18.10
2022-12-06T06:32:08.663Z,19.27
2022-12-06T06:34:59.425Z,21.43
2022-12-06T06:37:48.881Z,20.80
2022-12-06T06:40:38.828Z,18.60
2022-12-06T06:43:31.312Z,17.53
2022-12-06T06:46:19.796Z,20.17
2022-12-06T06:49:08.407Z,21.57
2022-12-06T06:51:56.696Z,17.10
2022-12-06T06:54:45.428Z,19.07
2022-12-06T06:57:34.744Z,17.30
2022-12-06T07:00:23.222Z,21.63
2022-12-06T07:03:16.926Z,22.27
2022-12-06T07:06:09.961Z,26.50
2022-12-06T07:08:58.683Z,23.60
2022-12-06T07:11:46.963Z,22.97
2022-12-06T07:14:37.004Z,22.67
2022-12-06T07:17:25.963Z,23.47
2022-12-06T07:20:14.865Z,23.67
2022-12-06T07:23:03.160Z,20.97
2022-12-06T07:26:07.668Z,21.27
2022-12-06T07:28:59.807Z,21.37
2022-12-06T07:31:48.651Z,23.03
2022-12-06T07:34:36.980Z,22.63
2022-12-06T07:37:25.558Z,22.63
2022-12-06T07:40:15.771Z,22.93
2022-12-06T07:43:27.585Z,25.13
2022-12-06T07:46:16.430Z,22.53
2022-12-06T07:49:04.957Z,22.90
2022-12-06T07:51:56.945Z,24.47
2022-12-06T07:54:47.600Z,22.47
2022-12-06T07:57:41.589Z,21.50
2022-12-06T08:00:31.585Z,20.80
2022-12-06T08:03:19.993Z,21.03
2022-12-06T08:06:12.642Z,23.00
2022-12-06T08:09:01.362Z,20.73
2022-12-06T08:11:49.884Z,21.73
2022-12-06T08:14:39.951Z,20.50
2022-12-06T08:17:30.315Z,17.87
2022-12-06T08:20:20.568Z,18.87
2022-12-06T08:23:09.411Z,15.77
2022-12-06T08:26:05.197Z,15.87
2022-12-06T08:29:01.304Z,15.87
2022-12-06T08:31:52.004Z,16.37
2022-12-06T08:34:41.092Z,15.17
2022-12-06T08:37:29.487Z,15.03
2022-12-06T08:40:18.298Z,14.03
2022-12-06T08:43:09.099Z,13.03
2022-12-06T08:45:57.683Z,12.43
2022-12-06T08:48:46.136Z,13.83
2022-12-06T08:51:35.485Z,13.80
2022-12-06T08:54:26.151Z,12.60
2022-12-06T08:57:14.506Z,11.70
2022-12-06T09:00:06.584Z,12.23
2022-12-06T09:02:58.468Z,12.40
2022-12-06T09:05:47.212Z,13.30
2022-12-06T09:08:36.709Z,13.07
2022-12-06T09:11:25.538Z,12.40
2022-12-06T09:14:20.950Z,13.00
2022-12-06T09:17:14.828Z,12.07
2022-12-06T09:20:06.078Z,12.43
2022-12-06T09:22:56.702Z,10.50
2022-12-06T09:25:47.523Z,11.33
2022-12-06T09:28:38.252Z,12.10
2022-12-06T09:31:28.041Z,9.77
2022-12-06T09:34:20.304Z,11.07
2022-12-06T09:37:13.955Z,11.37
2022-12-06T09:40:12.024Z,10.93
2022-12-06T09:43:05.680Z,11.77
2022-12-06T09:45:55.783Z,11.20
2022-12-06T09:48:59.268Z,9.90
2022-12-06T09:51:49.385Z,9.67
2022-12-06T09:55:00.082Z,9.83
2022-12-06T09:58:04.180Z,9.07
2022-12-06T10:01:41.035Z,9.00
2022-12-06T10:04:55.580Z,7.73
2022-12-06T10:07:51.949Z,9.20
2022-12-06T10:11:08.452Z,8.40
2022-12-06T10:14:43.520Z,9.70
2022-12-06T10:17:52.105Z,9.50
2022-12-06T10:20:52.052Z,9.20
2022-12-06T10:24:02.152Z,10.07
2022-12-06T10:26:55.638Z,8.90
2022-12-06T10:30:16.650Z,10.00
2022-12-06T10:33:21.098Z,9.10
2022-12-06T10:36:16.154Z,10.13
2022-12-06T10:39:30.051Z,9.17
2022-12-06T10:42:41.847Z,9.37
2022-12-06T10:45:58.203Z,9.40
2022-12-06T10:49:12.936Z,9.63
2022-12-06T10:52:29.360Z,9.60
2022-12-06T10:55:23.364Z,10.93
2022-12-06T10:58:34.516Z,10.00
2022-12-06T11:01:33.820Z,11.37
2022-12-06T11:04:34.843Z,11.17
2022-12-06T11:07:27.802Z,10.43
2022-12-06T11:10:29.589Z,12.20
2022-12-06T11:13:24.490Z,10.83
2022-12-06T11:16:17.362Z,11.27
2022-12-06T11:19:32.200Z,11.97
2022-12-06T11:22:44.593Z,12.80
2022-12-06T11:26:08.076Z,11.93
2022-12-06T11:29:08.805Z,10.83
2022-12-06T11:32:00.235Z,11.17
2022-12-06T11:34:57.384Z,10.80
2022-12-06T11:37:46.713Z,10.37
2022-12-06T11:40:46.429Z,9.73
2022-12-06T11:43:36.118Z,9.47
2022-12-06T11:46:24.413Z,9.47
2022-12-06T11:49:18.823Z,9.80
2022-12-06T11:52:29.756Z,8.77
2022-12-06T11:55:27.964Z,8.90
2022-12-06T11:58:47.160Z,9.20
2022-12-06T12:01:44.667Z,7.83
2022-12-06T12:04:41.745Z,7.00
2022-12-06T12:07:29.226Z,7.23
2022-12-06T12:10:31.442Z,7.57
2022-12-06T12:13:41.119Z,7.03
2022-12-06T12:16:46.514Z,6.73
2022-12-06T12:19:42.781Z,6.73
2022-12-06T12:22:42.978Z,6.00
2022-12-06T12:25:33.706Z,6.03
2022-12-06T12:28:30.309Z,5.90
2022-12-06T12:31:23.540Z,6.20
2022-12-06T12:34:20.677Z,6.03
2022-12-06T12:37:21.132Z,6.40
2022-12-06T12:40:24.256Z,6.47
2022-12-06T12:43:11.200Z,5.70
2022-12-06T12:46:10.222Z,5.93
2022-12-06T12:49:25.121Z,5.13
2022-12-06T12:52:31.309Z,5.80
2022-12-06T12:55:20.230Z,6.50
2022-12-06T12:58:10.843Z,6.17
2022-12-06T13:01:06.513Z,5.73
2022-12-06T13:04:03.825Z,5.83
2022-12-06T13:06:56.109Z,6.07
2022-12-06T13:09:55.508Z,6.67
2022-12-06T13:13:04.063Z,7.10
2022-12-06T13:15:54.691Z,6.43
2022-12-06T13:18:44.415Z,6.27
2022-12-06T13:21:41.300Z,6.77
2022-12-06T13:24:31.573Z,6.43
2022-12-06T13:27:23.127Z,6.70
2022-12-06T13:30:21.259Z,7.70
2022-12-06T13:33:21.253Z,7.50
2022-12-06T13:36:14.002Z,7.47
2022-12-06T13:39:32.817Z,8.47
2022-12-06T13:42:39.741Z,8.17
2022-12-06T13:45:43.754Z,8.53
2022-12-06T13:48:33.896Z,7.97
2022-12-06T13:51:34.478Z,8.43
2022-12-06T13:54:29.534Z,9.00
2022-12-06T13:57:25.261Z,9.40
2022-12-06T14:00:31.025Z,9.40
2022-12-06T14:03:18.066Z,8.80
2022-12-06T14:06:14.268Z,9.67
2022-12-06T14:09:04.163Z,10.33
2022-12-06T14:11:53.181Z,10.27
2022-12-06T14:14:40.375Z,10.03
2022-12-06T14:18:01.506Z,10.67
2022-12-06T14:20:49.872Z,10.97
2022-12-06T14:23:47.338Z,10.83
2022-12-06T14:26:35.207Z,10.23
2022-12-06T14:29:24.293Z,10.43
2022-12-06T14:32:12.074Z,11.17
2022-12-06T14:35:05.072Z,10.23
2022-12-06T14:37:57.254Z,10.30
2022-12-06T14:41:03.804Z,9.97
2022-12-06T14:43:50.826Z,9.80
2022-12-06T14:46:40.535Z,10.37
2022-12-06T14:49:47.114Z,11.97
2022-12-06T14:52:34.259Z,11.67
2022-12-06T14:55:22.127Z,10.87
2022-12-06T14:58:16.846Z,11.10
2022-12-06T15:01:16.963Z,10.00
2022-12-06T15:04:07.693Z,10.67
2022-12-06T15:06:56.709Z,11.73
2022-12-06T15:09:46.774Z,10.57
2022-12-06T15:12:53.880Z,9.57
2022-12-06T15:15:45.842Z,9.07
2022-12-06T15:18:58.300Z,10.07
2022-12-06T15:21:45.407Z,9.73
2022-12-06T15:24:32.941Z,9.40
2022-12-06T15:27:22.135Z,10.63
2022-12-06T15:30:10.119Z,9.80
2022-12-06T15:32:57.391Z,9.57
2022-12-06T15:35:44.668Z,9.27
2022-12-06T15:38:31.959Z,8.47
2022-12-06T15:41:21.678Z,8.23
2022-12-06T15:44:14.649Z,8.93
2022-12-06T15:47:02.115Z,8.17
2022-12-06T15:49:51.846Z,8.03
2022-12-06T15:52:40.295Z,7.93
2022-12-06T15:55:27.547Z,8.17
2022-12-06T15:58:16.164Z,8.57
2022-12-06T16:01:03.141Z,8.00
2022-12-06T16:03:53.228Z,7.67
2022-12-06T16:06:40.456Z,7.67
2022-12-06T16:09:29.584Z,7.23
2022-12-06T16:12:18.009Z,6.80
2022-12-06T16:15:05.536Z,6.83
2022-12-06T16:17:53.115Z,6.93
2022-12-06T16:20:41.312Z,7.40
2022-12-06T16:26:56.478Z,7.30
2022-12-06T16:29:44.031Z,8.17
2022-12-06T16:32:31.281Z,8.03
2022-12-06T16:35:18.512Z,8.10
2022-12-06T16:38:05.521Z,7.33
2022-12-06T16:40:52.619Z,7.23
2022-12-06T16:43:39.644Z,8.37
2022-12-06T16:46:37.833Z,7.07
2022-12-06T16:49:46.845Z,7.43
2022-12-06T16:52:35.354Z,7.50
2022-12-06T16:55:22.441Z,7.03
2022-12-06T16:58:09.682Z,7.60
2022-12-06T17:00:56.789Z,6.87
2022-12-06T17:03:49.522Z,7.20
2022-12-06T17:06:36.719Z,7.17
2022-12-06T17:09:23.690Z,7.47
2022-12-06T17:12:15.067Z,8.40
2022-12-06T17:15:02.647Z,7.77
2022-12-06T17:17:50.646Z,7.57
2022-12-06T17:20:37.637Z,7.37
2022-12-06T17:23:24.652Z,8.03
2022-12-06T17:26:11.696Z,8.27
2022-12-06T17:28:59.918Z,9.13
2022-12-06T17:31:46.985Z,8.07
2022-12-06T17:34:34.261Z,8.97
2022-12-06T17:37:21.377Z,9.30
2022-12-06T17:40:08.976Z,10.27
2022-12-06T17:43:01.964Z,10.67
2022-12-06T17:45:48.972Z,10.93
2022-12-06T17:48:40.165Z,11.03
2022-12-06T17:51:30.532Z,11.17
2022-12-06T17:54:19.470Z,10.90
2022-12-06T17:57:06.532Z,11.10
2022-12-06T17:59:53.544Z,10.97
2022-12-06T18:02:40.759Z,10.73
2022-12-06T18:05:27.849Z,10.87
2022-12-06T18:08:14.939Z,10.90
2022-12-06T18:11:02.191Z,11.67
2022-12-06T18:13:49.229Z,12.30
2022-12-06T18:16:38.638Z,12.83
2022-12-06T18:19:25.924Z,12.13
2022-12-06T18:22:13.265Z,11.57
2022-12-06T18:25:00.771Z,12.43
2022-12-06T18:27:49.116Z,12.30
2022-12-06T18:30:36.144Z,12.30
2022-12-06T18:33:27.905Z,12.83
2022-12-06T18:36:17.485Z,12.47
2022-12-06T18:39:10.914Z,11.50
2022-12-06T18:42:01.128Z,11.93
2022-12-06T18:44:48.141Z,13.17
2022-12-06T18:47:35.230Z,12.90
2022-12-06T18:50:22.377Z,13.37
2022-12-06T18:53:11.436Z,12.97
2022-12-06T18:55:58.490Z,13.10
2022-12-06T18:58:45.816Z,12.63
2022-12-06T19:01:35.367Z,13.17
2022-12-06T19:04:23.229Z,13.47
2022-12-06T19:07:10.388Z,15.07
2022-12-06T19:09:57.847Z,13.33
2022-12-06T19:12:47.341Z,13.03
2022-12-06T19:15:35.338Z,13.77
2022-12-06T19:18:22.715Z,14.27
2022-12-06T19:21:09.971Z,13.27
2022-12-06T19:23:58.980Z,14.80
2022-12-06T19:26:46.203Z,14.37
2022-12-06T19:29:33.515Z,14.00
2022-12-06T19:34:58.089Z,14.20
2022-12-06T19:37:46.806Z,15.70
2022-12-06T19:40:35.177Z,15.50
2022-12-06T19:43:45.410Z,15.37
2022-12-06T19:46:34.057Z,15.33
2022-12-06T19:49:24.693Z,14.50
2022-12-06T19:52:15.634Z,16.77
2022-12-06T19:55:05.973Z,16.47
2022-12-06T19:57:54.687Z,16.83
2022-12-06T20:00:42.438Z,16.27
2022-12-06T20:03:29.667Z,16.43
2022-12-06T20:06:24.497Z,17.63
2022-12-06T20:09:12.945Z,17.50
2022-12-06T20:12:01.950Z,17.73
2022-12-06T20:14:51.112Z,16.90
2022-12-06T20:17:38.239Z,15.83
2022-12-06T20:20:26.536Z,16.70
2022-12-06T20:23:15.497Z,19.00
2022-12-06T20:26:03.395Z,18.63
2022-12-06T20:28:50.595Z,17.83
2022-12-06T20:31:38.126Z,17.70
2022-12-06T20:34:28.923Z,17.40
2022-12-06T20:37:16.682Z,16.87
2022-12-06T20:40:05.018Z,17.07
2022-12-06T20:42:52.352Z,17.63
2022-12-06T20:45:39.648Z,18.03
2022-12-06T20:48:26.732Z,18.87
2022-12-06T20:51:16.959Z,18.10
2022-12-06T20:54:07.440Z,17.77
2022-12-06T20:56:54.621Z,18.43
2022-12-06T20:59:41.855Z,17.13
2022-12-06T21:02:29.086Z,18.77
2022-12-06T21:05:18.854Z,19.27
2022-12-06T21:08:06.723Z,19.10
2022-12-06T21:11:21.582Z,19.90
2022-12-06T21:14:03.514Z,20.80
2022-12-06T21:16:51.846Z,20.57
2022-12-06T21:19:39.876Z,20.40
2022-12-06T21:22:26.910Z,20.27
2022-12-06T21:25:15.366Z,19.83
2022-12-06T21:28:03.950Z,19.47
2022-12-06T21:30:53.926Z,21.30
2022-12-06T21:33:42.434Z,21.27
2022-12-06T21:36:31.715Z,22.17
2022-12-06T21:39:19.370Z,21.97
2022-12-06T21:42:06.464Z,22.10
2022-12-06T21:44:53.601Z,22.80
2022-12-06T21:47:40.796Z,22.07
2022-12-06T21:50:27.890Z,23.07
2022-12-06T21:53:15.003Z,22.30
2022-12-06T21:56:07.672Z,23.13
2022-12-06T21:58:56.366Z,22.90
2022-12-06T22:01:44.008Z,22.00
2022-12-06T22:04:31.416Z,24.33
2022-12-06T22:07:18.637Z,23.43
2022-12-06T22:10:06.608Z,24.60
2022-12-06T22:12:54.242Z,24.67
2022-12-06T22:15:42.809Z,23.07
2022-12-06T22:18:32.196Z,23.27
2022-12-06T22:21:22.495Z,24.23
2022-12-06T22:24:09.785Z,25.60
2022-12-06T22:26:57.107Z,26.00
2022-12-06T22:29:44.447Z,26.03
2022-12-06T22:32:34.579Z,24.27
2022-12-06T22:35:22.093Z,27.10
2022-12-06T22:38:09.600Z,26.27
2022-12-06T22:40:58.486Z,27.83
2022-12-06T22:43:46.831Z,26.07
2022-12-06T22:46:35.005Z,27.47
2022-12-06T22:49:22.474Z,27.37
2022-12-06T22:52:09.968Z,29.23
2022-12-06T22:54:57.192Z,27.90
2022-12-06T22:57:44.426Z,27.13
2022-12-06T23:00:31.668Z,28.33
2022-12-06T23:03:19.182Z,25.97
2022-12-06T23:06:07.612Z,26.77
2022-12-06T23:08:55.927Z,26.97
2022-12-06T23:11:44.029Z,26.93
2022-12-06T23:14:31.286Z,26.73
2022-12-06T23:17:18.584Z,27.37
2022-12-06T23:20:07.131Z,27.83
2022-12-06T23:22:55.037Z,28.90
2022-12-06T23:25:42.101Z,27.73
2022-12-06T23:28:29.575Z,27.63
2022-12-06T23:31:25.315Z,27.27
2022-12-06T23:34:30.855Z,28.20
2022-12-06T23:37:17.957Z,27.20
2022-12-06T23:40:05.889Z,26.23
2022-12-06T23:42:53.755Z,26.73
2022-12-06T23:45:40.858Z,27.20
2022-12-06T23:48:28.619Z,25.33
2022-12-06T23:51:19.510Z,24.67
2022-12-06T23:54:09.646Z,26.23
2022-12-06T23:56:58.556Z,25.37
2022-12-06T23:59:46.875Z,27.33
